sensor_id;sensor_type;location;lat;lon;timestamp;temperature;humidity
13721;DHT22;6932;51.438;5.470;2024-03-25T00:00:41;11.20;99.50
13721;DHT22;6932;51.438;5.470;2024-03-25T00:03:42;11.20;99.50
13721;DHT22;6932;51.438;5.470;2024-03-25T00:06:19;11.20;99.50
13721;DHT22;6932;51.438;5.470;2024-03-25T00:09:45;11.20;99.60
13721;DHT22;6932;51.438;5.470;2024-03-25T00:12:36;11.10;99.60
13721;DHT22;6932;51.438;5.470;2024-03-25T00:16:02;11.10;99.60
13721;DHT22;6932;51.438;5.470;2024-03-25T00:22:44;11.10;99.60
13721;DHT22;6932;51.438;5.470;2024-03-25T00:29:48;11.10;99.70
13721;DHT22;6932;51.438;5.470;2024-03-25T00:32:38;11.10;99.60
13721;DHT22;6932;51.438;5.470;2024-03-25T00:36:01;11.10;99.60
13721;DHT22;6932;51.438;5.470;2024-03-25T00:39:00;11.10;99.60
13721;DHT22;6932;51.438;5.470;2024-03-25T00:44:53;11.00;99.70
13721;DHT22;6932;51.438;5.470;2024-03-25T00:47:34;11.00;99.60
13721;DHT22;6932;51.438;5.470;2024-03-25T00:50:11;11.00;99.70
13721;DHT22;6932;51.438;5.470;2024-03-25T00:56:03;10.90;99.60
13721;DHT22;6932;51.438;5.470;2024-03-25T00:58:46;11.00;99.60
13721;DHT22;6932;51.438;5.470;2024-03-25T01:01:25;10.90;99.60
13721;DHT22;6932;51.438;5.470;2024-03-25T01:04:36;10.90;99.60
13721;DHT22;6932;51.438;5.470;2024-03-25T01:07:55;10.90;99.60
13721;DHT22;6932;51.438;5.470;2024-03-25T01:14:15;10.80;99.60
13721;DHT22;6932;51.438;5.470;2024-03-25T01:17:06;10.80;99.60
13721;DHT22;6932;51.438;5.470;2024-03-25T01:20:01;10.80;99.60
13721;DHT22;6932;51.438;5.470;2024-03-25T01:23:11;10.80;99.70
13721;DHT22;6932;51.438;5.470;2024-03-25T01:26:35;10.80;99.70
13721;DHT22;6932;51.438;5.470;2024-03-25T01:29:21;10.80;99.70
13721;DHT22;6932;51.438;5.470;2024-03-25T01:32:20;10.80;99.70
13721;DHT22;6932;51.438;5.470;2024-03-25T01:38:44;10.70;99.70
13721;DHT22;6932;51.438;5.470;2024-03-25T01:41:36;10.70;99.70
13721;DHT22;6932;51.438;5.470;2024-03-25T01:48:06;10.70;99.80
13721;DHT22;6932;51.438;5.470;2024-03-25T01:51:14;10.70;99.80
13721;DHT22;6932;51.438;5.470;2024-03-25T01:54:20;10.60;99.80
13721;DHT22;6932;51.438;5.470;2024-03-25T01:57:42;10.60;99.80
13721;DHT22;6932;51.438;5.470;2024-03-25T02:03:57;10.60;99.90
13721;DHT22;6932;51.438;5.470;2024-03-25T02:07:17;10.60;99.80
13721;DHT22;6932;51.438;5.470;2024-03-25T02:09:49;10.60;99.80
13721;DHT22;6932;51.438;5.470;2024-03-25T02:12:27;10.50;99.80
13721;DHT22;6932;51.438;5.470;2024-03-25T02:15:39;10.50;99.90
13721;DHT22;6932;51.438;5.470;2024-03-25T02:18:51;10.50;99.80
13721;DHT22;6932;51.438;5.470;2024-03-25T02:25:03;10.50;99.90
13721;DHT22;6932;51.438;5.470;2024-03-25T02:28:31;10.50;99.90
13721;DHT22;6932;51.438;5.470;2024-03-25T02:39:32;10.50;99.90
13721;DHT22;6932;51.438;5.470;2024-03-25T02:42:28;10.40;99.90
13721;DHT22;6932;51.438;5.470;2024-03-25T02:45:46;10.40;99.90
13721;DHT22;6932;51.438;5.470;2024-03-25T02:49:02;10.40;99.90
13721;DHT22;6932;51.438;5.470;2024-03-25T02:59:29;10.40;99.90
13721;DHT22;6932;51.438;5.470;2024-03-25T03:02:38;10.40;99.90
13721;DHT22;6932;51.438;5.470;2024-03-25T03:05:44;10.30;99.90
13721;DHT22;6932;51.438;5.470;2024-03-25T03:09:19;10.30;99.90
13721;DHT22;6932;51.438;5.470;2024-03-25T03:27:00;10.30;99.90
13721;DHT22;6932;51.438;5.470;2024-03-25T03:30:32;10.20;99.90
13721;DHT22;6932;51.438;5.470;2024-03-25T04:04:09;10.00;99.90
13721;DHT22;6932;51.438;5.470;2024-03-25T04:27:32;9.90;99.90
13721;DHT22;6932;51.438;5.470;2024-03-25T04:54:19;9.80;99.90
13721;DHT22;6932;51.438;5.470;2024-03-25T05:05:37;9.70;99.90
13721;DHT22;6932;51.438;5.470;2024-03-25T05:08:25;9.70;99.90
13721;DHT22;6932;51.438;5.470;2024-03-25T05:11:14;9.70;99.90
13721;DHT22;6932;51.438;5.470;2024-03-25T05:14:10;9.70;99.90
13721;DHT22;6932;51.438;5.470;2024-03-25T05:17:03;9.70;99.90
13721;DHT22;6932;51.438;5.470;2024-03-25T05:19:48;9.70;99.90
13721;DHT22;6932;51.438;5.470;2024-03-25T05:22:45;9.70;99.90
13721;DHT22;6932;51.438;5.470;2024-03-25T05:28:52;9.60;99.90
13721;DHT22;6932;51.438;5.470;2024-03-25T05:31:28;9.60;99.90
13721;DHT22;6932;51.438;5.470;2024-03-25T05:34:19;9.60;99.90
13721;DHT22;6932;51.438;5.470;2024-03-25T05:36:54;9.60;99.90
13721;DHT22;6932;51.438;5.470;2024-03-25T05:40:11;9.60;99.90
13721;DHT22;6932;51.438;5.470;2024-03-25T05:50:25;9.60;99.90
13721;DHT22;6932;51.438;5.470;2024-03-25T05:53:41;9.60;99.90
13721;DHT22;6932;51.438;5.470;2024-03-25T06:00:52;9.60;99.90
13721;DHT22;6932;51.438;5.470;2024-03-25T06:03:45;9.70;99.90
13721;DHT22;6932;51.438;5.470;2024-03-25T06:06:25;9.70;99.90
13721;DHT22;6932;51.438;5.470;2024-03-25T06:09:40;9.80;99.90
13721;DHT22;6932;51.438;5.470;2024-03-25T06:12:17;9.90;99.90
13721;DHT22;6932;51.438;5.470;2024-03-25T06:19:20;10.00;99.90
13721;DHT22;6932;51.438;5.470;2024-03-25T06:26:51;10.30;99.90
13721;DHT22;6932;51.438;5.470;2024-03-25T06:30:21;10.30;99.90
13721;DHT22;6932;51.438;5.470;2024-03-25T06:33:28;10.30;99.90
13721;DHT22;6932;51.438;5.470;2024-03-25T06:36:39;10.30;99.90
13721;DHT22;6932;51.438;5.470;2024-03-25T06:39:40;10.30;99.90
13721;DHT22;6932;51.438;5.470;2024-03-25T06:42:36;10.30;99.90
13721;DHT22;6932;51.438;5.470;2024-03-25T06:52:49;10.30;99.90
13721;DHT22;6932;51.438;5.470;2024-03-25T06:59:07;10.50;99.90
13721;DHT22;6932;51.438;5.470;2024-03-25T07:02:37;10.60;99.90
13721;DHT22;6932;51.438;5.470;2024-03-25T07:05:31;10.80;99.90
13721;DHT22;6932;51.438;5.470;2024-03-25T07:08:42;11.00;99.90
13721;DHT22;6932;51.438;5.470;2024-03-25T07:15:12;11.20;99.90
13721;DHT22;6932;51.438;5.470;2024-03-25T07:18:06;11.30;99.90
13721;DHT22;6932;51.438;5.470;2024-03-25T07:21:34;11.40;99.90
13721;DHT22;6932;51.438;5.470;2024-03-25T07:24:37;11.50;99.90
13721;DHT22;6932;51.438;5.470;2024-03-25T07:31:46;11.60;99.90
13721;DHT22;6932;51.438;5.470;2024-03-25T07:34:35;11.70;99.90
13721;DHT22;6932;51.438;5.470;2024-03-25T07:37:34;11.80;99.90
13721;DHT22;6932;51.438;5.470;2024-03-25T07:40:14;11.90;99.90
13721;DHT22;6932;51.438;5.470;2024-03-25T07:43:00;11.90;99.90
13721;DHT22;6932;51.438;5.470;2024-03-25T07:45:41;12.00;99.90
13721;DHT22;6932;51.438;5.470;2024-03-25T07:48:19;12.00;99.90
13721;DHT22;6932;51.438;5.470;2024-03-25T07:51:00;11.90;99.90
13721;DHT22;6932;51.438;5.470;2024-03-25T07:53:43;11.80;99.90
13721;DHT22;6932;51.438;5.470;2024-03-25T08:08:23;11.60;99.90
13721;DHT22;6932;51.438;5.470;2024-03-25T08:19:16;12.20;99.90
13721;DHT22;6932;51.438;5.470;2024-03-25T08:22:02;12.70;99.90
13721;DHT22;6932;51.438;5.470;2024-03-25T08:24:51;13.10;99.90
13721;DHT22;6932;51.438;5.470;2024-03-25T08:27:25;13.40;99.90
13721;DHT22;6932;51.438;5.470;2024-03-25T08:32:46;14.00;99.90
13721;DHT22;6932;51.438;5.470;2024-03-25T08:35:46;14.30;99.90
13721;DHT22;6932;51.438;5.470;2024-03-25T08:38:34;14.60;99.90
13721;DHT22;6932;51.438;5.470;2024-03-25T08:54:52;15.90;99.90
13721;DHT22;6932;51.438;5.470;2024-03-25T08:58:12;16.10;99.80
13721;DHT22;6932;51.438;5.470;2024-03-25T09:01:21;16.30;99.80
13721;DHT22;6932;51.438;5.470;2024-03-25T09:04:18;16.40;99.40
13721;DHT22;6932;51.438;5.470;2024-03-25T09:07:41;16.50;98.70
13721;DHT22;6932;51.438;5.470;2024-03-25T09:10:37;16.60;98.90
13721;DHT22;6932;51.438;5.470;2024-03-25T09:14:01;16.70;98.70
13721;DHT22;6932;51.438;5.470;2024-03-25T09:17:24;16.80;98.80
13721;DHT22;6932;51.438;5.470;2024-03-25T14:57:55;17.30;77.70
13721;DHT22;6932;51.438;5.470;2024-03-25T15:00:22;17.20;77.70
13721;DHT22;6932;51.438;5.470;2024-03-25T15:02:52;17.20;77.20
13721;DHT22;6932;51.438;5.470;2024-03-25T15:05:18;17.20;76.70
13721;DHT22;6932;51.438;5.470;2024-03-25T15:07:45;17.20;76.10
13721;DHT22;6932;51.438;5.470;2024-03-25T15:10:14;17.20;75.80
13721;DHT22;6932;51.438;5.470;2024-03-25T15:12:40;17.20;75.80
13721;DHT22;6932;51.438;5.470;2024-03-25T15:15:06;17.10;76.40
13721;DHT22;6932;51.438;5.470;2024-03-25T15:17:35;17.10;76.50
13721;DHT22;6932;51.438;5.470;2024-03-25T15:20:01;17.10;75.40
13721;DHT22;6932;51.438;5.470;2024-03-25T15:22:28;17.10;75.20
13721;DHT22;6932;51.438;5.470;2024-03-25T15:24:54;17.00;75.20
13721;DHT22;6932;51.438;5.470;2024-03-25T15:27:19;17.10;75.20
13721;DHT22;6932;51.438;5.470;2024-03-25T15:29:45;17.00;75.30
13721;DHT22;6932;51.438;5.470;2024-03-25T15:32:11;17.00;75.00
13721;DHT22;6932;51.438;5.470;2024-03-25T15:34:37;17.00;74.80
13721;DHT22;6932;51.438;5.470;2024-03-25T15:37:03;17.00;74.40
13721;DHT22;6932;51.438;5.470;2024-03-25T15:39:28;17.00;74.70
13721;DHT22;6932;51.438;5.470;2024-03-25T15:41:54;17.00;74.40
13721;DHT22;6932;51.438;5.470;2024-03-25T15:44:20;17.00;74.20
13721;DHT22;6932;51.438;5.470;2024-03-25T15:46:45;17.00;73.70
13721;DHT22;6932;51.438;5.470;2024-03-25T15:49:11;17.00;73.20
13721;DHT22;6932;51.438;5.470;2024-03-25T15:51:37;17.00;73.10
13721;DHT22;6932;51.438;5.470;2024-03-25T15:54:03;17.00;73.10
13721;DHT22;6932;51.438;5.470;2024-03-25T15:56:29;17.00;72.80
13721;DHT22;6932;51.438;5.470;2024-03-25T15:58:54;16.90;73.00
13721;DHT22;6932;51.438;5.470;2024-03-25T16:01:21;16.90;73.20
13721;DHT22;6932;51.438;5.470;2024-03-25T16:03:47;16.90;73.70
13721;DHT22;6932;51.438;5.470;2024-03-25T16:06:14;16.90;74.00
13721;DHT22;6932;51.438;5.470;2024-03-25T16:08:41;16.90;74.40
13721;DHT22;6932;51.438;5.470;2024-03-25T16:11:13;16.90;74.20
13721;DHT22;6932;51.438;5.470;2024-03-25T16:13:40;16.90;73.90
13721;DHT22;6932;51.438;5.470;2024-03-25T16:16:06;16.80;73.90
13721;DHT22;6932;51.438;5.470;2024-03-25T16:18:32;16.80;74.20
13721;DHT22;6932;51.438;5.470;2024-03-25T16:20:58;16.80;74.00
13721;DHT22;6932;51.438;5.470;2024-03-25T16:23:25;16.80;74.20
13721;DHT22;6932;51.438;5.470;2024-03-25T16:25:51;16.80;74.10
13721;DHT22;6932;51.438;5.470;2024-03-25T16:28:17;16.80;73.80
13721;DHT22;6932;51.438;5.470;2024-03-25T16:30:43;16.70;73.80
13721;DHT22;6932;51.438;5.470;2024-03-25T16:33:09;16.70;73.60
13721;DHT22;6932;51.438;5.470;2024-03-25T16:35:35;16.70;73.70
13721;DHT22;6932;51.438;5.470;2024-03-25T16:38:01;16.60;73.30
13721;DHT22;6932;51.438;5.470;2024-03-25T16:40:27;16.60;73.30
13721;DHT22;6932;51.438;5.470;2024-03-25T16:42:53;16.60;73.40
13721;DHT22;6932;51.438;5.470;2024-03-25T16:45:18;16.60;73.40
13721;DHT22;6932;51.438;5.470;2024-03-25T16:47:45;16.60;73.30
13721;DHT22;6932;51.438;5.470;2024-03-25T16:50:10;16.60;73.50
13721;DHT22;6932;51.438;5.470;2024-03-25T16:52:36;16.60;73.60
13721;DHT22;6932;51.438;5.470;2024-03-25T16:55:03;16.60;73.60
13721;DHT22;6932;51.438;5.470;2024-03-25T16:57:32;16.50;73.80
13721;DHT22;6932;51.438;5.470;2024-03-25T16:59:58;16.50;73.80
13721;DHT22;6932;51.438;5.470;2024-03-25T17:02:23;16.50;73.80
13721;DHT22;6932;51.438;5.470;2024-03-25T17:04:51;16.50;73.60
13721;DHT22;6932;51.438;5.470;2024-03-25T17:07:17;16.50;73.60
13721;DHT22;6932;51.438;5.470;2024-03-25T17:09:43;16.50;73.70
13721;DHT22;6932;51.438;5.470;2024-03-25T17:12:09;16.50;73.70
13721;DHT22;6932;51.438;5.470;2024-03-25T17:14:35;16.40;74.00
13721;DHT22;6932;51.438;5.470;2024-03-25T17:17:00;16.40;74.10
13721;DHT22;6932;51.438;5.470;2024-03-25T17:19:27;16.40;74.40
13721;DHT22;6932;51.438;5.470;2024-03-25T17:21:53;16.40;74.70
13721;DHT22;6932;51.438;5.470;2024-03-25T17:24:18;16.40;75.00
13721;DHT22;6932;51.438;5.470;2024-03-25T17:26:44;16.40;74.90
13721;DHT22;6932;51.438;5.470;2024-03-25T17:29:10;16.30;75.30
13721;DHT22;6932;51.438;5.470;2024-03-25T17:31:36;16.30;75.70
13721;DHT22;6932;51.438;5.470;2024-03-25T17:34:01;16.30;76.10
13721;DHT22;6932;51.438;5.470;2024-03-25T17:36:30;16.30;76.50
13721;DHT22;6932;51.438;5.470;2024-03-25T17:38:56;16.30;76.70
13721;DHT22;6932;51.438;5.470;2024-03-25T17:41:21;16.30;77.10
13721;DHT22;6932;51.438;5.470;2024-03-25T17:43:47;16.30;77.20
13721;DHT22;6932;51.438;5.470;2024-03-25T17:46:13;16.20;77.40
13721;DHT22;6932;51.438;5.470;2024-03-25T17:48:38;16.20;77.60
13721;DHT22;6932;51.438;5.470;2024-03-25T17:51:04;16.20;77.80
13721;DHT22;6932;51.438;5.470;2024-03-25T17:53:30;16.20;78.10
13721;DHT22;6932;51.438;5.470;2024-03-25T17:55:57;16.10;78.10
13721;DHT22;6932;51.438;5.470;2024-03-25T17:58:26;16.10;78.50
13721;DHT22;6932;51.438;5.470;2024-03-25T18:00:53;16.10;78.60
13721;DHT22;6932;51.438;5.470;2024-03-25T18:03:19;16.10;78.80
13721;DHT22;6932;51.438;5.470;2024-03-25T18:05:46;16.10;79.20
13721;DHT22;6932;51.438;5.470;2024-03-25T18:08:12;16.00;79.30
13721;DHT22;6932;51.438;5.470;2024-03-25T18:10:37;16.00;79.40
13721;DHT22;6932;51.438;5.470;2024-03-25T18:13:11;15.90;79.70
13721;DHT22;6932;51.438;5.470;2024-03-25T18:15:49;15.90;79.80
13721;DHT22;6932;51.438;5.470;2024-03-25T18:18:19;15.90;79.80
13721;DHT22;6932;51.438;5.470;2024-03-25T18:20:45;15.90;80.00
13721;DHT22;6932;51.438;5.470;2024-03-25T18:23:12;15.80;80.10
13721;DHT22;6932;51.438;5.470;2024-03-25T18:25:39;15.80;80.30
13721;DHT22;6932;51.438;5.470;2024-03-25T18:28:05;15.80;80.40
13721;DHT22;6932;51.438;5.470;2024-03-25T18:30:34;15.70;81.20
13721;DHT22;6932;51.438;5.470;2024-03-25T18:33:02;15.70;80.80
13721;DHT22;6932;51.438;5.470;2024-03-25T18:35:34;15.70;80.70
13721;DHT22;6932;51.438;5.470;2024-03-25T18:38:01;15.60;80.90
13721;DHT22;6932;51.438;5.470;2024-03-25T18:40:29;15.60;80.90
13721;DHT22;6932;51.438;5.470;2024-03-25T18:42:58;15.60;81.20
13721;DHT22;6932;51.438;5.470;2024-03-25T18:45:24;15.60;81.90
13721;DHT22;6932;51.438;5.470;2024-03-25T18:47:50;15.60;81.40
13721;DHT22;6932;51.438;5.470;2024-03-25T18:50:16;15.50;81.40
13721;DHT22;6932;51.438;5.470;2024-03-25T18:52:42;15.50;81.60
13721;DHT22;6932;51.438;5.470;2024-03-25T18:55:08;15.50;81.80
13721;DHT22;6932;51.438;5.470;2024-03-25T18:57:34;15.40;81.80
13721;DHT22;6932;51.438;5.470;2024-03-25T18:59:59;15.40;81.80
13721;DHT22;6932;51.438;5.470;2024-03-25T19:02:25;15.40;82.10
13721;DHT22;6932;51.438;5.470;2024-03-25T19:04:51;15.40;82.00
13721;DHT22;6932;51.438;5.470;2024-03-25T19:07:17;15.30;82.00
13721;DHT22;6932;51.438;5.470;2024-03-25T19:09:42;15.30;81.90
13721;DHT22;6932;51.438;5.470;2024-03-25T19:12:08;15.30;82.00
13721;DHT22;6932;51.438;5.470;2024-03-25T19:14:34;15.30;82.10
13721;DHT22;6932;51.438;5.470;2024-03-25T19:16:59;15.20;82.10
13721;DHT22;6932;51.438;5.470;2024-03-25T19:19:25;15.20;82.00
13721;DHT22;6932;51.438;5.470;2024-03-25T19:21:51;15.20;81.80
13721;DHT22;6932;51.438;5.470;2024-03-25T19:24:17;15.20;81.70
13721;DHT22;6932;51.438;5.470;2024-03-25T19:26:43;15.10;81.60
13721;DHT22;6932;51.438;5.470;2024-03-25T19:29:09;15.10;81.60
13721;DHT22;6932;51.438;5.470;2024-03-25T19:31:34;15.10;81.50
13721;DHT22;6932;51.438;5.470;2024-03-25T19:34:00;15.10;81.50
13721;DHT22;6932;51.438;5.470;2024-03-25T19:36:26;15.10;81.40
13721;DHT22;6932;51.438;5.470;2024-03-25T19:38:52;15.00;81.30
13721;DHT22;6932;51.438;5.470;2024-03-25T19:41:19;15.00;81.30
13721;DHT22;6932;51.438;5.470;2024-03-25T19:43:45;15.00;81.10
13721;DHT22;6932;51.438;5.470;2024-03-25T19:46:11;15.00;81.30
13721;DHT22;6932;51.438;5.470;2024-03-25T19:48:37;15.00;81.20
13721;DHT22;6932;51.438;5.470;2024-03-25T19:51:03;15.00;81.10
13721;DHT22;6932;51.438;5.470;2024-03-25T19:53:30;15.00;81.30
13721;DHT22;6932;51.438;5.470;2024-03-25T19:56:00;15.00;81.20
13721;DHT22;6932;51.438;5.470;2024-03-25T19:58:27;14.90;81.10
13721;DHT22;6932;51.438;5.470;2024-03-25T20:00:54;14.90;81.20
13721;DHT22;6932;51.438;5.470;2024-03-25T20:03:20;14.90;81.10
13721;DHT22;6932;51.438;5.470;2024-03-25T20:05:46;14.90;81.00
13721;DHT22;6932;51.438;5.470;2024-03-25T20:08:12;14.80;81.10
13721;DHT22;6932;51.438;5.470;2024-03-25T20:10:38;14.80;81.10
13721;DHT22;6932;51.438;5.470;2024-03-25T20:13:04;14.80;81.10
13721;DHT22;6932;51.438;5.470;2024-03-25T20:15:30;14.80;81.00
13721;DHT22;6932;51.438;5.470;2024-03-25T20:17:56;14.80;81.10
13721;DHT22;6932;51.438;5.470;2024-03-25T20:20:23;14.80;81.20
13721;DHT22;6932;51.438;5.470;2024-03-25T20:22:49;14.70;81.00
13721;DHT22;6932;51.438;5.470;2024-03-25T20:25:15;14.70;81.00
13721;DHT22;6932;51.438;5.470;2024-03-25T20:27:41;14.70;80.80
13721;DHT22;6932;51.438;5.470;2024-03-25T20:30:07;14.60;80.80
13721;DHT22;6932;51.438;5.470;2024-03-25T20:32:33;14.60;80.80
13721;DHT22;6932;51.438;5.470;2024-03-25T20:34:59;14.60;80.60
13721;DHT22;6932;51.438;5.470;2024-03-25T20:37:28;14.60;80.70
13721;DHT22;6932;51.438;5.470;2024-03-25T20:39:58;14.60;80.60
13721;DHT22;6932;51.438;5.470;2024-03-25T20:42:24;14.60;80.60
13721;DHT22;6932;51.438;5.470;2024-03-25T20:44:49;14.50;80.50
13721;DHT22;6932;51.438;5.470;2024-03-25T20:47:15;14.50;80.50
13721;DHT22;6932;51.438;5.470;2024-03-25T20:49:41;14.50;80.50
13721;DHT22;6932;51.438;5.470;2024-03-25T20:52:07;14.50;80.40
13721;DHT22;6932;51.438;5.470;2024-03-25T20:54:34;14.50;80.30
13721;DHT22;6932;51.438;5.470;2024-03-25T20:57:00;14.40;80.30
13721;DHT22;6932;51.438;5.470;2024-03-25T20:59:25;14.40;80.30
13721;DHT22;6932;51.438;5.470;2024-03-25T21:01:51;14.40;80.30
13721;DHT22;6932;51.438;5.470;2024-03-25T21:04:17;14.40;80.30
13721;DHT22;6932;51.438;5.470;2024-03-25T21:06:42;14.40;80.20
13721;DHT22;6932;51.438;5.470;2024-03-25T21:09:11;14.40;80.20
13721;DHT22;6932;51.438;5.470;2024-03-25T21:11:37;14.40;80.20
13721;DHT22;6932;51.438;5.470;2024-03-25T21:14:02;14.40;80.20
13721;DHT22;6932;51.438;5.470;2024-03-25T21:16:29;14.30;80.30
13721;DHT22;6932;51.438;5.470;2024-03-25T21:18:55;14.30;80.30
13721;DHT22;6932;51.438;5.470;2024-03-25T21:21:21;14.30;80.30
13721;DHT22;6932;51.438;5.470;2024-03-25T21:23:47;14.30;80.30
13721;DHT22;6932;51.438;5.470;2024-03-25T21:26:13;14.30;80.40
13721;DHT22;6932;51.438;5.470;2024-03-25T21:28:39;14.30;80.40
13721;DHT22;6932;51.438;5.470;2024-03-25T21:31:05;14.20;80.30
13721;DHT22;6932;51.438;5.470;2024-03-25T21:33:32;14.20;80.40
13721;DHT22;6932;51.438;5.470;2024-03-25T21:35:58;14.30;80.50
13721;DHT22;6932;51.438;5.470;2024-03-25T21:38:23;14.20;80.40
13721;DHT22;6932;51.438;5.470;2024-03-25T21:40:49;14.20;80.60
13721;DHT22;6932;51.438;5.470;2024-03-25T21:43:15;14.20;80.60
13721;DHT22;6932;51.438;5.470;2024-03-25T21:45:40;14.20;80.60
13721;DHT22;6932;51.438;5.470;2024-03-25T21:48:07;14.10;80.60
13721;DHT22;6932;51.438;5.470;2024-03-25T21:50:32;14.10;80.60
13721;DHT22;6932;51.438;5.470;2024-03-25T21:52:58;14.10;80.70
13721;DHT22;6932;51.438;5.470;2024-03-25T21:55:25;14.10;80.80
13721;DHT22;6932;51.438;5.470;2024-03-25T21:57:51;14.10;80.90
13721;DHT22;6932;51.438;5.470;2024-03-25T22:00:17;14.00;80.80
13721;DHT22;6932;51.438;5.470;2024-03-25T22:02:44;14.00;80.80
13721;DHT22;6932;51.438;5.470;2024-03-25T22:05:10;14.00;80.90
13721;DHT22;6932;51.438;5.470;2024-03-25T22:07:36;14.00;81.00
13721;DHT22;6932;51.438;5.470;2024-03-25T22:10:02;14.00;80.90
13721;DHT22;6932;51.438;5.470;2024-03-25T22:12:27;13.90;81.00
13721;DHT22;6932;51.438;5.470;2024-03-25T22:14:53;14.00;81.10
13721;DHT22;6932;51.438;5.470;2024-03-25T22:17:19;13.90;81.30
13721;DHT22;6932;51.438;5.470;2024-03-25T22:19:45;13.90;81.30
13721;DHT22;6932;51.438;5.470;2024-03-25T22:22:10;13.90;81.30
13721;DHT22;6932;51.438;5.470;2024-03-25T22:24:36;13.80;81.40
13721;DHT22;6932;51.438;5.470;2024-03-25T22:27:04;13.90;81.40
13721;DHT22;6932;51.438;5.470;2024-03-25T22:29:29;13.80;81.60
13721;DHT22;6932;51.438;5.470;2024-03-25T22:31:55;13.80;81.60
13721;DHT22;6932;51.438;5.470;2024-03-25T22:34:21;13.80;81.70
13721;DHT22;6932;51.438;5.470;2024-03-25T22:36:47;13.80;81.70
13721;DHT22;6932;51.438;5.470;2024-03-25T22:39:13;13.80;81.70
13721;DHT22;6932;51.438;5.470;2024-03-25T22:41:38;13.70;81.80
13721;DHT22;6932;51.438;5.470;2024-03-25T22:44:04;13.80;81.80
13721;DHT22;6932;51.438;5.470;2024-03-25T22:46:30;13.70;81.80
13721;DHT22;6932;51.438;5.470;2024-03-25T22:48:55;13.70;81.90
13721;DHT22;6932;51.438;5.470;2024-03-25T22:51:21;13.70;82.00
13721;DHT22;6932;51.438;5.470;2024-03-25T22:53:47;13.70;82.00
13721;DHT22;6932;51.438;5.470;2024-03-25T22:56:13;13.70;82.20
13721;DHT22;6932;51.438;5.470;2024-03-25T22:58:38;13.60;82.10
13721;DHT22;6932;51.438;5.470;2024-03-25T23:01:08;13.60;82.10
13721;DHT22;6932;51.438;5.470;2024-03-25T23:03:35;13.60;82.30
13721;DHT22;6932;51.438;5.470;2024-03-25T23:06:04;13.60;82.30
13721;DHT22;6932;51.438;5.470;2024-03-25T23:08:30;13.60;82.40
13721;DHT22;6932;51.438;5.470;2024-03-25T23:10:58;13.60;82.30
13721;DHT22;6932;51.438;5.470;2024-03-25T23:13:25;13.60;82.40
13721;DHT22;6932;51.438;5.470;2024-03-25T23:15:52;13.60;82.50
13721;DHT22;6932;51.438;5.470;2024-03-25T23:18:19;13.60;82.40
13721;DHT22;6932;51.438;5.470;2024-03-25T23:20:47;13.60;82.40
13721;DHT22;6932;51.438;5.470;2024-03-25T23:23:15;13.60;82.40
13721;DHT22;6932;51.438;5.470;2024-03-25T23:25:43;13.60;82.50
13721;DHT22;6932;51.438;5.470;2024-03-25T23:28:10;13.60;82.60
13721;DHT22;6932;51.438;5.470;2024-03-25T23:30:38;13.50;82.50
13721;DHT22;6932;51.438;5.470;2024-03-25T23:33:04;13.60;82.50
13721;DHT22;6932;51.438;5.470;2024-03-25T23:35:31;13.50;82.60
13721;DHT22;6932;51.438;5.470;2024-03-25T23:38:01;13.50;82.70
13721;DHT22;6932;51.438;5.470;2024-03-25T23:40:28;13.50;82.70
13721;DHT22;6932;51.438;5.470;2024-03-25T23:42:57;13.50;82.80
13721;DHT22;6932;51.438;5.470;2024-03-25T23:45:25;13.50;82.80
13721;DHT22;6932;51.438;5.470;2024-03-25T23:47:51;13.50;82.70
13721;DHT22;6932;51.438;5.470;2024-03-25T23:50:16;13.40;82.90
13721;DHT22;6932;51.438;5.470;2024-03-25T23:52:42;13.40;82.80
13721;DHT22;6932;51.438;5.470;2024-03-25T23:55:08;13.40;82.80
13721;DHT22;6932;51.438;5.470;2024-03-25T23:57:35;13.40;82.80
